Colerain, North Carolina
Current Conditions -  °F | °C
As of 5:15 PM on Wednesday 28 Jan 2015 (Local Time) from KEDE Reporting Station
Clear Clear  
Wind Chill:   Ceiling: Unl
Heat Index:   Visibility: 10mi
Dew Point: -12°   Wind: 7mph
Humidity: 31%   Direction: 340°NNW
Pressure: 30.23"   Gusts: NA
Location:  36.2°N, 76.77°W
Report Text: KEDE 282215Z AUTO 34006KT 10SM CLR 04/M12 A3023 RMK AO2 T00411118
Loading
Personal Weather Stations






























Interactive Weather Map New forecast layout! Learn more

10-Day Weather Forecast

Advertisements
Track Severe Weather on mobile